Time,TemperatureF,DewpointF,PressureIn,WindDirection,WindDirectionDegrees,WindSpeedMPH,WindSpeedGustMPH,Humidity,HourlyPrecipIn,Conditions,Clouds,dailyrainin,SoftwareType,DateUTC
2013-11-07 00:05:00,52.6,49.2,30.05,SSW,207,2.0,5.0,88,0.00,,---,0.00,VWS V14.01,2013-11-07 05:05:00,
2013-11-07 00:10:00,52.6,48.8,30.05,WNW,290,1.0,4.0,87,0.00,,---,0.00,VWS V14.01,2013-11-07 05:10:00,
2013-11-07 00:15:00,52.5,49.0,30.05,South,174,0.0,2.0,88,0.00,,---,0.00,VWS V14.01,2013-11-07 05:15:00,
2013-11-07 00:20:00,52.4,49.0,30.05,SW,236,3.0,3.0,88,0.00,,---,0.00,VWS V14.01,2013-11-07 05:20:00,
2013-11-07 00:25:00,52.3,48.9,30.04,SSE,165,2.0,4.0,88,0.00,,---,0.00,VWS V14.01,2013-11-07 05:25:00,
2013-11-07 00:30:00,52.3,48.9,30.04,SSW,194,0.0,5.0,88,0.00,,---,0.00,VWS V14.01,2013-11-07 05:30:00,
2013-11-07 00:35:00,52.2,48.8,30.04,SE,141,0.0,5.0,88,0.00,,---,0.00,VWS V14.01,2013-11-07 05:35:00,
2013-11-07 00:40:00,52.2,48.8,30.03,South,188,1.0,4.0,88,0.00,,---,0.00,VWS V14.01,2013-11-07 05:40:00,
2013-11-07 00:45:00,52.1,48.7,30.03,SSE,151,1.0,3.0,88,0.00,,---,0.00,VWS V14.01,2013-11-07 05:45:00,
2013-11-07 00:50:00,52.2,49.1,30.03,SSE,165,0.0,4.0,89,0.00,,---,0.00,VWS V14.01,2013-11-07 05:50:00,
2013-11-07 00:55:00,52.2,48.8,30.03,SSE,150,1.0,4.0,88,0.00,,---,0.00,VWS V14.01,2013-11-07 05:55:00,
2013-11-07 01:00:00,52.2,49.1,30.02,SSE,156,0.0,4.0,89,0.00,,---,0.00,VWS V14.01,2013-11-07 06:00:00,
2013-11-07 01:05:00,52.2,49.1,30.02,South,173,0.0,5.0,89,0.00,,---,0.00,VWS V14.01,2013-11-07 06:05:00,
2013-11-07 01:10:00,52.1,48.7,30.02,SE,145,2.0,3.0,88,0.00,,---,0.00,VWS V14.01,2013-11-07 06:10:00,
2013-11-07 01:15:00,52.0,48.9,30.01,SSW,198,0.0,3.0,89,0.00,,---,0.00,VWS V14.01,2013-11-07 06:15:00,
2013-11-07 01:20:00,51.8,48.7,30.01,SE,136,0.0,1.0,89,0.00,,---,0.00,VWS V14.01,2013-11-07 06:20:00,
2013-11-07 01:25:00,51.8,48.7,30.01,SSE,167,0.0,3.0,89,0.00,,---,0.00,VWS V14.01,2013-11-07 06:25:00,
2013-11-07 01:30:00,51.7,48.9,30.01,SE,142,0.0,5.0,90,0.00,,---,0.00,VWS V14.01,2013-11-07 06:30:00,
2013-11-07 01:35:00,51.6,48.8,30.00,SE,131,0.0,1.0,90,0.00,,---,0.00,VWS V14.01,2013-11-07 06:35:00,
2013-11-07 01:40:00,51.5,48.7,30.00,WNW,302,0.0,1.0,90,0.00,,---,0.00,VWS V14.01,2013-11-07 06:40:00,
2013-11-07 01:45:00,51.4,48.6,29.99,South,185,0.0,2.0,90,0.00,,---,0.00,VWS V14.01,2013-11-07 06:45:00,
2013-11-07 01:50:00,51.4,48.9,29.99,SSW,206,0.0,2.0,91,0.00,,---,0.00,VWS V14.01,2013-11-07 06:50:00,
2013-11-07 02:00:00,51.3,48.8,29.99,SE,133,0.0,3.0,91,0.00,,---,0.00,VWS V14.01,2013-11-07 07:00:00,
2013-11-07 02:05:00,51.3,48.8,29.99,WSW,256,0.0,3.0,91,0.00,,---,0.00,VWS V14.01,2013-11-07 07:05:00,
2013-11-07 02:15:00,51.1,48.6,29.99,WNW,302,0.0,3.0,91,0.00,,---,0.00,VWS V14.01,2013-11-07 07:15:00,
2013-11-07 02:20:00,51.0,48.8,29.98,East,94,0.0,2.0,92,0.00,,---,0.00,VWS V14.01,2013-11-07 07:20:00,
2013-11-07 02:30:00,51.3,49.1,29.98,SSE,153,0.0,3.0,92,0.00,,---,0.00,VWS V14.01,2013-11-07 07:30:00,
2013-11-07 02:35:00,51.3,49.1,29.98,WSW,250,0.0,2.0,92,0.00,,---,0.00,VWS V14.01,2013-11-07 07:35:00,
2013-11-07 02:40:00,51.2,49.0,29.97,West,276,0.0,3.0,92,0.00,,---,0.00,VWS V14.01,2013-11-07 07:40:00,
2013-11-07 02:45:00,51.1,48.9,29.97,West,276,0.0,0.0,92,0.00,,---,0.00,VWS V14.01,2013-11-07 07:45:00,
2013-11-07 02:50:00,51.1,48.9,29.97,ESE,120,0.0,2.0,92,0.00,,---,0.00,VWS V14.01,2013-11-07 07:50:00,
2013-11-07 02:55:00,51.0,48.8,29.96,ESE,120,0.0,1.0,92,0.00,,---,0.00,VWS V14.01,2013-11-07 07:55:00,
2013-11-07 03:00:00,51.0,48.8,29.96,SSE,163,0.0,2.0,92,0.00,,---,0.00,VWS V14.01,2013-11-07 08:00:00,
2013-11-07 03:10:00,50.7,48.8,29.96,ENE,65,0.0,3.0,93,0.00,,---,0.00,VWS V14.01,2013-11-07 08:10:00,
2013-11-07 03:15:00,50.8,48.8,29.96,ENE,65,0.0,1.0,93,0.00,,---,0.00,VWS V14.01,2013-11-07 08:15:00,
2013-11-07 03:20:00,50.9,49.2,29.96,ENE,65,0.0,0.0,94,0.00,,---,0.00,VWS V14.01,2013-11-07 08:20:00,
2013-11-07 03:25:00,51.1,49.4,29.95,NE,56,0.0,1.0,94,0.00,,---,0.00,VWS V14.01,2013-11-07 08:25:00,
2013-11-07 03:30:00,51.2,49.5,29.95,ENE,57,0.0,1.0,94,0.00,,---,0.00,VWS V14.01,2013-11-07 08:30:00,
2013-11-07 03:35:00,51.4,49.7,29.95,ESE,111,0.0,1.0,94,0.00,,---,0.00,VWS V14.01,2013-11-07 08:35:00,
2013-11-07 03:40:00,51.5,49.8,29.95,ESE,111,0.0,1.0,94,0.00,,---,0.00,VWS V14.01,2013-11-07 08:40:00,
2013-11-07 03:45:00,51.6,49.7,29.95,ESE,111,0.0,0.0,93,0.00,,---,0.00,VWS V14.01,2013-11-07 08:45:00,
2013-11-07 03:50:00,51.7,49.8,29.94,ESE,111,0.0,0.0,93,0.00,,---,0.00,VWS V14.01,2013-11-07 08:50:00,
2013-11-07 03:55:00,51.5,49.5,29.94,ESE,111,0.0,1.0,93,0.00,,---,0.00,VWS V14.01,2013-11-07 08:55:00,
2013-11-07 04:00:00,51.5,49.5,29.94,ESE,110,0.0,1.0,93,0.00,,---,0.00,VWS V14.01,2013-11-07 09:00:00,
2013-11-07 04:05:00,51.4,49.5,29.94,ESE,110,0.0,0.0,93,0.00,,---,0.00,VWS V14.01,2013-11-07 09:05:00,
2013-11-07 04:10:00,51.4,49.5,29.94,ESE,110,0.0,0.0,93,0.00,,---,0.00,VWS V14.01,2013-11-07 09:10:00,
2013-11-07 04:15:00,51.4,49.5,29.93,ESE,110,0.0,0.0,93,0.00,,---,0.00,VWS V14.01,2013-11-07 09:15:00,
2013-11-07 04:20:00,51.4,49.5,29.93,ESE,110,0.0,0.0,93,0.00,,---,0.00,VWS V14.01,2013-11-07 09:20:00,
2013-11-07 04:25:00,51.4,49.5,29.93,ESE,110,0.0,0.0,93,0.00,,---,0.00,VWS V14.01,2013-11-07 09:25:00,
2013-11-07 04:30:00,51.3,49.3,29.93,ESE,110,0.0,0.0,93,0.00,,---,0.00,VWS V14.01,2013-11-07 09:30:00,
2013-11-07 04:35:00,51.3,49.3,29.92,ESE,110,0.0,0.0,93,0.00,,---,0.00,VWS V14.01,2013-11-07 09:35:00,
2013-11-07 04:40:00,51.4,49.7,29.92,ESE,110,0.0,0.0,94,0.00,,---,0.00,VWS V14.01,2013-11-07 09:40:00,
2013-11-07 04:50:00,51.7,50.0,29.92,ESE,110,0.0,0.0,94,0.00,,---,0.00,VWS V14.01,2013-11-07 09:50:00,
2013-11-07 04:55:00,51.7,50.0,29.92,ESE,111,0.0,0.0,94,0.00,,---,0.00,VWS V14.01,2013-11-07 09:55:00,
2013-11-07 05:00:00,52.2,50.8,29.91,ESE,110,0.0,1.0,95,0.00,,---,0.00,VWS V14.01,2013-11-07 10:00:00,
2013-11-07 05:05:00,52.9,51.8,29.90,ESE,110,0.0,1.0,96,0.00,,---,0.00,VWS V14.01,2013-11-07 10:05:00,
2013-11-07 05:10:00,53.4,52.0,29.90,ESE,110,0.0,2.0,95,0.00,,---,0.00,VWS V14.01,2013-11-07 10:10:00,
2013-11-07 05:15:00,53.9,52.5,29.89,ESE,113,0.0,2.0,95,0.00,,---,0.00,VWS V14.01,2013-11-07 10:15:00,
2013-11-07 05:25:00,54.9,53.5,29.88,SW,231,0.0,5.0,95,0.00,,---,0.00,VWS V14.01,2013-11-07 10:25:00,
2013-11-07 05:30:00,55.3,53.9,29.87,East,81,1.0,3.0,95,0.00,,---,0.00,VWS V14.01,2013-11-07 10:30:00,
2013-11-07 05:35:00,55.6,54.2,29.87,South,170,2.0,3.0,95,0.00,,---,0.00,VWS V14.01,2013-11-07 10:35:00,
2013-11-07 05:40:00,56.0,54.3,29.86,ESE,113,2.0,5.0,94,0.00,,---,0.00,VWS V14.01,2013-11-07 10:40:00,
2013-11-07 05:45:00,56.3,54.6,29.86,SE,144,1.0,4.0,94,0.00,,---,0.00,VWS V14.01,2013-11-07 10:45:00,
2013-11-07 05:50:00,56.7,55.0,29.86,SE,139,2.0,6.0,94,0.00,,---,0.00,VWS V14.01,2013-11-07 10:50:00,
2013-11-07 05:55:00,57.2,55.5,29.86,WNW,287,0.0,10.0,94,0.00,,---,0.00,VWS V14.01,2013-11-07 10:55:00,
2013-11-07 06:00:00,57.6,55.6,29.85,South,169,0.0,7.0,93,0.00,,---,0.00,VWS V14.01,2013-11-07 11:00:00,
2013-11-07 06:05:00,57.8,55.8,29.86,NW,323,0.0,4.0,93,0.00,,---,0.00,VWS V14.01,2013-11-07 11:05:00,
2013-11-07 06:15:00,58.1,55.8,29.85,WSW,258,0.0,4.0,92,0.00,,---,0.00,VWS V14.01,2013-11-07 11:15:00,
2013-11-07 06:20:00,58.3,56.0,29.85,SSE,165,0.0,2.0,92,0.00,,---,0.00,VWS V14.01,2013-11-07 11:20:00,
2013-11-07 06:25:00,58.3,56.0,29.85,South,183,0.0,5.0,92,0.00,,---,0.00,VWS V14.01,2013-11-07 11:25:00,
2013-11-07 06:30:00,58.4,56.1,29.84,WNW,298,1.0,3.0,92,0.00,,---,0.00,VWS V14.01,2013-11-07 11:30:00,
2013-11-07 06:40:00,58.6,56.3,29.84,SSW,197,0.0,4.0,92,0.00,,---,0.00,VWS V14.01,2013-11-07 11:40:00,
2013-11-07 06:45:00,58.7,56.4,29.84,ESE,104,0.0,10.0,92,0.00,,---,0.00,VWS V14.01,2013-11-07 11:45:00,
2013-11-07 06:50:00,58.9,56.6,29.84,ESE,105,2.0,6.0,92,0.00,,---,0.00,VWS V14.01,2013-11-07 11:50:00,
2013-11-07 06:55:00,58.9,56.6,29.84,ESE,110,0.0,2.0,92,0.00,,---,0.00,VWS V14.01,2013-11-07 11:55:00,
2013-11-07 07:00:00,58.9,56.6,29.84,SE,140,0.0,4.0,92,0.00,,---,0.00,VWS V14.01,2013-11-07 12:00:00,
2013-11-07 07:05:00,59.0,56.7,29.84,SSE,163,0.0,3.0,92,0.00,,---,0.00,VWS V14.01,2013-11-07 12:05:00,
2013-11-07 07:10:00,59.2,56.9,29.84,ESE,123,0.0,3.0,92,0.00,,---,0.00,VWS V14.01,2013-11-07 12:10:00,
2013-11-07 07:15:00,59.2,56.9,29.83,SW,220,3.0,4.0,92,0.00,,---,0.00,VWS V14.01,2013-11-07 12:15:00,
2013-11-07 07:20:00,59.3,57.0,29.83,SSW,207,0.0,4.0,92,0.00,,---,0.00,VWS V14.01,2013-11-07 12:20:00,
2013-11-07 07:25:00,59.4,57.1,29.83,South,175,3.0,6.0,92,0.00,,---,0.00,VWS V14.01,2013-11-07 12:25:00,
2013-11-07 07:30:00,59.4,57.1,29.83,SE,146,1.0,3.0,92,0.00,,---,0.00,VWS V14.01,2013-11-07 12:30:00,
2013-11-07 07:35:00,59.6,57.3,29.83,South,182,2.0,4.0,92,0.00,,---,0.00,VWS V14.01,2013-11-07 12:35:00,
2013-11-07 07:40:00,59.8,57.5,29.84,South,170,0.0,5.0,92,0.00,,---,0.00,VWS V14.01,2013-11-07 12:40:00,
2013-11-07 07:45:00,60.1,57.8,29.83,WNW,296,3.0,3.0,92,0.00,,---,0.00,VWS V14.01,2013-11-07 12:45:00,
2013-11-07 07:50:00,60.3,57.7,29.83,NNW,346,0.0,6.0,91,0.00,,---,0.00,VWS V14.01,2013-11-07 12:50:00,
2013-11-07 07:55:00,60.4,57.8,29.83,East,90,1.0,3.0,91,0.00,,---,0.00,VWS V14.01,2013-11-07 12:55:00,
2013-11-07 08:00:00,60.5,57.6,29.82,ENE,78,0.0,5.0,90,0.00,,---,0.00,VWS V14.01,2013-11-07 13:00:00,
2013-11-07 08:05:00,60.7,57.8,29.82,SSW,199,0.0,4.0,90,0.00,,---,0.00,VWS V14.01,2013-11-07 13:05:00,
2013-11-07 08:10:00,60.9,58.0,29.82,SW,217,6.0,6.0,90,0.00,,---,0.00,VWS V14.01,2013-11-07 13:10:00,
2013-11-07 08:15:00,61.1,57.8,29.81,SSE,157,0.0,9.0,89,0.00,,---,0.00,VWS V14.01,2013-11-07 13:15:00,
2013-11-07 08:20:00,61.3,57.7,29.81,SSW,206,2.0,11.0,88,0.00,,---,0.00,VWS V14.01,2013-11-07 13:20:00,
2013-11-07 08:25:00,61.6,57.7,29.81,South,182,0.0,6.0,87,0.00,,---,0.00,VWS V14.01,2013-11-07 13:25:00,
2013-11-07 08:30:00,61.9,58.0,29.80,WNW,300,3.0,7.0,87,0.00,,---,0.00,VWS V14.01,2013-11-07 13:30:00,
2013-11-07 08:35:00,62.1,57.5,29.80,WNW,302,7.0,10.0,85,0.00,,---,0.00,VWS V14.01,2013-11-07 13:35:00,
2013-11-07 08:40:00,62.4,57.8,29.80,SE,131,1.0,7.0,85,0.00,,---,0.00,VWS V14.01,2013-11-07 13:40:00,
2013-11-07 08:45:00,62.7,57.8,29.80,East,90,3.0,10.0,84,0.00,,---,0.00,VWS V14.01,2013-11-07 13:45:00,
2013-11-07 08:50:00,62.9,57.7,29.80,WSW,253,5.0,10.0,83,0.00,,---,0.00,VWS V14.01,2013-11-07 13:50:00,
2013-11-07 08:55:00,63.4,57.8,29.80,ESE,111,0.0,12.0,82,0.00,,---,0.00,VWS V14.01,2013-11-07 13:55:00,
2013-11-07 09:00:00,63.6,57.7,29.79,WNW,288,2.0,11.0,81,0.00,,---,0.00,VWS V14.01,2013-11-07 14:00:00,
2013-11-07 09:05:00,63.9,58.0,29.79,NW,325,3.0,10.0,81,0.00,,---,0.00,VWS V14.01,2013-11-07 14:05:00,
2013-11-07 09:10:00,64.2,57.6,29.78,West,281,7.0,11.0,79,0.00,,---,0.00,VWS V14.01,2013-11-07 14:10:00,
2013-11-07 09:15:00,64.3,57.7,29.78,WNW,298,9.0,13.0,79,0.00,,---,0.00,VWS V14.01,2013-11-07 14:15:00,
2013-11-07 09:20:00,64.3,57.3,29.78,West,269,5.0,11.0,78,0.00,,---,0.00,VWS V14.01,2013-11-07 14:20:00,
2013-11-07 09:25:00,64.4,57.4,29.77,South,179,2.0,14.0,78,0.00,,---,0.00,VWS V14.01,2013-11-07 14:25:00,
2013-11-07 09:30:00,64.6,57.2,29.78,North,1,6.0,12.0,77,0.00,,---,0.00,VWS V14.01,2013-11-07 14:30:00,
2013-11-07 09:35:00,64.7,57.3,29.77,South,175,3.0,7.0,77,0.00,,---,0.00,VWS V14.01,2013-11-07 14:35:00,
2013-11-07 09:40:00,64.8,57.1,29.78,WNW,294,11.0,17.0,76,0.00,,---,0.00,VWS V14.01,2013-11-07 14:40:00,
2013-11-07 09:45:00,64.8,57.4,29.78,NNW,336,3.0,11.0,77,0.00,,---,0.00,VWS V14.01,2013-11-07 14:45:00,
2013-11-07 09:50:00,64.8,57.1,29.78,NW,319,0.0,7.0,76,0.00,,---,0.00,VWS V14.01,2013-11-07 14:50:00,
2013-11-07 09:55:00,64.8,57.1,29.77,West,259,6.0,16.0,76,0.00,,---,0.00,VWS V14.01,2013-11-07 14:55:00,
2013-11-07 10:00:00,64.8,57.1,29.78,South,178,1.0,12.0,76,0.00,,---,0.00,VWS V14.01,2013-11-07 15:00:00,
2013-11-07 10:05:00,64.8,57.1,29.77,NNW,333,1.0,6.0,76,0.00,,---,0.00,VWS V14.01,2013-11-07 15:05:00,
2013-11-07 10:10:00,64.7,57.0,29.77,North,352,2.0,9.0,76,0.00,,---,0.00,VWS V14.01,2013-11-07 15:10:00,
2013-11-07 10:15:00,64.7,56.6,29.77,SW,224,0.0,6.0,75,0.00,,---,0.00,VWS V14.01,2013-11-07 15:15:00,
2013-11-07 10:20:00,64.7,57.0,29.77,ESE,106,4.0,7.0,76,0.00,,---,0.00,VWS V14.01,2013-11-07 15:20:00,
2013-11-07 10:25:00,64.7,56.6,29.77,SSW,193,6.0,13.0,75,0.00,,---,0.00,VWS V14.01,2013-11-07 15:25:00,
2013-11-07 10:30:00,64.8,56.7,29.76,SSE,165,7.0,12.0,75,0.00,,---,0.00,VWS V14.01,2013-11-07 15:30:00,
2013-11-07 10:35:00,64.9,56.4,29.76,WSW,239,2.0,10.0,74,0.00,,---,0.00,VWS V14.01,2013-11-07 15:35:00,
2013-11-07 10:40:00,64.9,56.4,29.76,South,171,0.0,9.0,74,0.00,,---,0.00,VWS V14.01,2013-11-07 15:40:00,
2013-11-07 10:45:00,65.0,56.2,29.75,SW,215,5.0,7.0,73,0.00,,---,0.00,VWS V14.01,2013-11-07 15:45:00,
2013-11-07 10:50:00,65.3,56.4,29.74,West,269,4.0,7.0,73,0.00,,---,0.00,VWS V14.01,2013-11-07 15:50:00,
2013-11-07 10:55:00,65.5,56.2,29.74,SSE,154,4.0,9.0,72,0.00,,---,0.00,VWS V14.01,2013-11-07 15:55:00,
2013-11-07 11:00:00,65.6,56.3,29.75,NE,40,4.0,10.0,72,0.00,,---,0.00,VWS V14.01,2013-11-07 16:00:00,
2013-11-07 11:05:00,65.6,56.0,29.75,NNW,348,5.0,8.0,71,0.00,,---,0.00,VWS V14.01,2013-11-07 16:05:00,
2013-11-07 11:10:00,65.4,56.2,29.75,SSW,197,4.0,10.0,72,0.00,,---,0.00,VWS V14.01,2013-11-07 16:10:00,
2013-11-07 11:15:00,65.2,56.0,29.74,South,188,4.0,11.0,72,0.00,,---,0.00,VWS V14.01,2013-11-07 16:15:00,
2013-11-07 11:20:00,65.1,55.9,29.74,West,272,0.0,6.0,72,0.00,,---,0.00,VWS V14.01,2013-11-07 16:20:00,
2013-11-07 11:25:00,65.0,56.2,29.74,NNE,30,3.0,5.0,73,0.00,,---,0.00,VWS V14.01,2013-11-07 16:25:00,
2013-11-07 11:30:00,64.7,55.9,29.73,NW,310,4.0,7.0,73,0.00,,---,0.00,VWS V14.01,2013-11-07 16:30:00,
2013-11-07 11:35:00,64.4,56.3,29.74,WSW,242,14.0,16.0,75,0.00,,---,0.00,VWS V14.01,2013-11-07 16:35:00,
2013-11-07 11:40:00,63.9,56.2,29.73,NNE,14,1.0,14.0,76,0.00,,---,0.00,VWS V14.01,2013-11-07 16:40:00,
2013-11-07 11:45:00,63.4,56.1,29.73,NNW,335,1.0,6.0,77,0.00,,---,0.00,VWS V14.01,2013-11-07 16:45:00,
2013-11-07 11:50:00,63.1,56.5,29.72,West,272,5.0,6.0,79,0.00,,---,0.00,VWS V14.01,2013-11-07 16:50:00,
2013-11-07 11:55:00,62.5,56.2,29.71,NE,45,0.0,7.0,80,0.01,,---,0.01,VWS V14.01,2013-11-07 16:55:00,
2013-11-07 12:00:00,62.1,56.5,29.72,NNE,13,2.0,5.0,82,0.01,,---,0.01,VWS V14.01,2013-11-07 17:00:00,
2013-11-07 12:05:00,61.6,56.4,29.72,NE,47,2.0,7.0,83,0.01,,---,0.01,VWS V14.01,2013-11-07 17:05:00,
2013-11-07 12:10:00,61.1,56.2,29.72,NNW,327,0.0,6.0,84,0.01,,---,0.01,VWS V14.01,2013-11-07 17:10:00,
2013-11-07 12:15:00,60.7,56.2,29.72,NW,321,3.0,6.0,85,0.01,,---,0.01,VWS V14.01,2013-11-07 17:15:00,
2013-11-07 12:20:00,60.4,56.2,29.72,West,277,0.0,5.0,86,0.01,,---,0.01,VWS V14.01,2013-11-07 17:20:00,
2013-11-07 12:25:00,60.0,56.1,29.72,WNW,299,0.0,1.0,87,0.01,,---,0.01,VWS V14.01,2013-11-07 17:25:00,
2013-11-07 12:30:00,59.8,56.2,29.71,North,4,0.0,3.0,88,0.01,,---,0.01,VWS V14.01,2013-11-07 17:30:00,
2013-11-07 12:35:00,59.4,55.8,29.71,ENE,64,3.0,5.0,88,0.01,,---,0.01,VWS V14.01,2013-11-07 17:35:00,
2013-11-07 12:40:00,59.1,55.5,29.71,South,172,1.0,4.0,88,0.01,,---,0.01,VWS V14.01,2013-11-07 17:40:00,
2013-11-07 12:45:00,58.9,55.4,29.71,WNW,282,4.0,7.0,88,0.01,,---,0.01,VWS V14.01,2013-11-07 17:45:00,
2013-11-07 12:50:00,58.6,55.4,29.71,NE,48,0.0,4.0,89,0.01,,---,0.01,VWS V14.01,2013-11-07 17:50:00,
2013-11-07 12:55:00,58.4,55.5,29.69,SSE,158,0.0,3.0,90,0.01,,---,0.01,VWS V14.01,2013-11-07 17:55:00,
2013-11-07 13:00:00,58.1,55.2,29.70,South,169,0.0,1.0,90,0.00,,---,0.01,VWS V14.01,2013-11-07 18:00:00,
2013-11-07 13:05:00,57.9,55.3,29.70,WSW,240,2.0,2.0,91,0.00,,---,0.01,VWS V14.01,2013-11-07 18:05:00,
2013-11-07 13:10:00,57.8,55.2,29.71,WSW,240,0.0,2.0,91,0.00,,---,0.01,VWS V14.01,2013-11-07 18:10:00,
2013-11-07 13:15:00,57.7,55.4,29.71,West,281,0.0,2.0,92,0.00,,---,0.01,VWS V14.01,2013-11-07 18:15:00,
2013-11-07 13:20:00,57.6,55.3,29.70,NW,304,0.0,2.0,92,0.00,,---,0.01,VWS V14.01,2013-11-07 18:20:00,
2013-11-07 13:25:00,57.4,55.1,29.70,WSW,239,0.0,3.0,92,0.00,,---,0.01,VWS V14.01,2013-11-07 18:25:00,
2013-11-07 13:35:00,57.3,55.0,29.70,WSW,239,0.0,1.0,92,0.00,,---,0.01,VWS V14.01,2013-11-07 18:35:00,
2013-11-07 13:40:00,57.3,55.3,29.70,WSW,239,0.0,1.0,93,0.00,,---,0.01,VWS V14.01,2013-11-07 18:40:00,
2013-11-07 13:45:00,57.2,55.2,29.70,WSW,239,0.0,1.0,93,0.00,,---,0.01,VWS V14.01,2013-11-07 18:45:00,
2013-11-07 13:50:00,57.1,55.1,29.70,WSW,252,0.0,2.0,93,0.00,,---,0.01,VWS V14.01,2013-11-07 18:50:00,
2013-11-07 13:55:00,56.9,54.9,29.69,ENE,70,2.0,5.0,93,0.00,,---,0.01,VWS V14.01,2013-11-07 18:55:00,
2013-11-07 14:00:00,56.6,54.3,29.69,NNW,333,0.0,3.0,92,0.00,,---,0.01,VWS V14.01,2013-11-07 19:00:00,
2013-11-07 14:05:00,56.4,54.1,29.69,WSW,239,0.0,3.0,92,0.00,,---,0.01,VWS V14.01,2013-11-07 19:05:00,
2013-11-07 14:10:00,56.2,53.9,29.70,WSW,239,1.0,2.0,92,0.00,,---,0.01,VWS V14.01,2013-11-07 19:10:00,
2013-11-07 14:15:00,56.1,53.8,29.69,WSW,239,0.0,2.0,92,0.00,,---,0.01,VWS V14.01,2013-11-07 19:15:00,
2013-11-07 14:20:00,55.9,53.6,29.70,NE,35,0.0,3.0,92,0.00,,---,0.01,VWS V14.01,2013-11-07 19:20:00,
2013-11-07 14:25:00,55.7,53.4,29.70,NNW,347,0.0,4.0,92,0.01,,---,0.02,VWS V14.01,2013-11-07 19:25:00,
2013-11-07 14:30:00,55.5,53.2,29.70,North,355,0.0,3.0,92,0.01,,---,0.02,VWS V14.01,2013-11-07 19:30:00,
2013-11-07 14:35:00,55.4,53.1,29.71,West,276,1.0,5.0,92,0.01,,---,0.02,VWS V14.01,2013-11-07 19:35:00,
2013-11-07 14:40:00,55.1,52.5,29.71,North,357,0.0,5.0,91,0.01,,---,0.02,VWS V14.01,2013-11-07 19:40:00,
2013-11-07 14:45:00,54.9,52.6,29.71,ESE,104,0.0,2.0,92,0.01,,---,0.02,VWS V14.01,2013-11-07 19:45:00,
2013-11-07 14:50:00,54.7,52.4,29.71,NE,46,1.0,4.0,92,0.01,,---,0.02,VWS V14.01,2013-11-07 19:50:00,
2013-11-07 15:00:00,54.3,52.0,29.71,SE,143,0.0,5.0,92,0.01,,---,0.02,VWS V14.01,2013-11-07 20:00:00,
2013-11-07 15:05:00,54.2,51.9,29.71,North,11,0.0,4.0,92,0.01,,---,0.02,VWS V14.01,2013-11-07 20:05:00,
2013-11-07 15:15:00,53.9,51.3,29.72,NE,55,0.0,7.0,91,0.01,,---,0.02,VWS V14.01,2013-11-07 20:15:00,
2013-11-07 15:20:00,53.8,51.2,29.72,NW,316,0.0,5.0,91,0.01,,---,0.02,VWS V14.01,2013-11-07 20:20:00,
2013-11-07 15:25:00,53.6,51.0,29.73,WNW,287,5.0,6.0,91,0.01,,---,0.02,VWS V14.01,2013-11-07 20:25:00,
2013-11-07 15:30:00,53.4,50.5,29.73,North,358,3.0,5.0,90,0.00,,---,0.02,VWS V14.01,2013-11-07 20:30:00,
2013-11-07 15:35:00,53.2,50.3,29.73,NE,54,0.0,7.0,90,0.00,,---,0.02,VWS V14.01,2013-11-07 20:35:00,
2013-11-07 15:40:00,53.1,50.2,29.73,NE,40,2.0,5.0,90,0.00,,---,0.02,VWS V14.01,2013-11-07 20:40:00,
2013-11-07 15:45:00,52.8,49.3,29.73,North,2,1.0,7.0,88,0.00,,---,0.02,VWS V14.01,2013-11-07 20:45:00,
2013-11-07 15:50:00,52.6,48.5,29.72,North,356,4.0,10.0,86,0.00,,---,0.02,VWS V14.01,2013-11-07 20:50:00,
2013-11-07 15:55:00,52.5,48.1,29.72,NNE,15,4.0,6.0,85,0.00,,---,0.02,VWS V14.01,2013-11-07 20:55:00,
2013-11-07 16:00:00,52.3,48.2,29.72,NNE,30,2.0,5.0,86,0.00,,---,0.02,VWS V14.01,2013-11-07 21:00:00,
2013-11-07 16:05:00,52.2,48.5,29.72,NNE,30,0.0,2.0,87,0.00,,---,0.02,VWS V14.01,2013-11-07 21:05:00,
2013-11-07 16:10:00,51.9,48.5,29.72,NNE,30,0.0,4.0,88,0.00,,---,0.02,VWS V14.01,2013-11-07 21:10:00,
2013-11-07 16:15:00,51.8,48.7,29.72,NNE,30,0.0,0.0,89,0.00,,---,0.02,VWS V14.01,2013-11-07 21:15:00,
2013-11-07 16:20:00,51.5,48.1,29.72,NNE,30,1.0,4.0,88,0.00,,---,0.02,VWS V14.01,2013-11-07 21:20:00,
2013-11-07 16:25:00,51.3,47.9,29.72,North,360,0.0,4.0,88,0.00,,---,0.02,VWS V14.01,2013-11-07 21:25:00,
2013-11-07 16:30:00,51.0,47.3,29.72,NE,47,3.0,3.0,87,0.00,,---,0.02,VWS V14.01,2013-11-07 21:30:00,
2013-11-07 16:35:00,50.5,46.2,29.73,NNW,327,0.0,7.0,85,0.00,,---,0.02,VWS V14.01,2013-11-07 21:35:00,
2013-11-07 16:40:00,50.2,46.2,29.73,South,172,1.0,5.0,86,0.00,,---,0.02,VWS V14.01,2013-11-07 21:40:00,
2013-11-07 16:50:00,49.6,45.9,29.75,North,11,0.0,5.0,87,0.00,,---,0.02,VWS V14.01,2013-11-07 21:50:00,
2013-11-07 16:55:00,49.4,46.0,29.74,NNW,342,1.0,2.0,88,0.00,,---,0.02,VWS V14.01,2013-11-07 21:55:00,
2013-11-07 17:00:00,49.1,46.0,29.74,NNW,338,0.0,7.0,89,0.00,,---,0.02,VWS V14.01,2013-11-07 22:00:00,
2013-11-07 17:10:00,48.8,46.0,29.74,NE,40,0.0,3.0,90,0.00,,---,0.02,VWS V14.01,2013-11-07 22:10:00,
2013-11-07 17:15:00,48.6,46.1,29.74,NNE,22,0.0,3.0,91,0.00,,---,0.02,VWS V14.01,2013-11-07 22:15:00,
2013-11-07 17:20:00,48.5,46.0,29.73,NNW,340,0.0,5.0,91,0.00,,---,0.02,VWS V14.01,2013-11-07 22:20:00,
2013-11-07 17:25:00,48.4,45.9,29.73,WNW,302,0.0,2.0,91,0.00,,---,0.02,VWS V14.01,2013-11-07 22:25:00,
2013-11-07 17:30:00,48.3,45.8,29.74,South,190,0.0,4.0,91,0.00,,---,0.02,VWS V14.01,2013-11-07 22:30:00,
2013-11-07 17:35:00,48.3,45.8,29.74,West,267,1.0,5.0,91,0.00,,---,0.02,VWS V14.01,2013-11-07 22:35:00,
2013-11-07 17:40:00,48.3,45.8,29.74,ENE,62,0.0,3.0,91,0.00,,---,0.02,VWS V14.01,2013-11-07 22:40:00,
2013-11-07 17:45:00,48.2,46.0,29.74,NE,40,2.0,5.0,92,0.00,,---,0.02,VWS V14.01,2013-11-07 22:45:00,
2013-11-07 17:50:00,48.2,46.0,29.74,North,9,0.0,3.0,92,0.00,,---,0.02,VWS V14.01,2013-11-07 22:50:00,
2013-11-07 17:55:00,48.2,46.0,29.75,SW,229,3.0,4.0,92,0.00,,---,0.02,VWS V14.01,2013-11-07 22:55:00,
2013-11-07 18:00:00,48.2,46.0,29.74,WSW,252,2.0,4.0,92,0.00,,---,0.02,VWS V14.01,2013-11-07 23:00:00,
2013-11-07 18:05:00,48.3,46.1,29.75,NNW,339,0.0,4.0,92,0.00,,---,0.02,VWS V14.01,2013-11-07 23:05:00,
2013-11-07 18:15:00,48.2,47.1,29.75,NE,52,2.0,5.0,96,0.00,,---,0.02,VWS V14.01,2013-11-07 23:15:00,
2013-11-07 18:20:00,48.1,45.9,29.75,West,273,0.0,3.0,92,0.00,,---,0.02,VWS V14.01,2013-11-07 23:20:00,
2013-11-07 18:25:00,48.1,45.6,29.75,NNE,24,1.0,3.0,91,0.00,,---,0.02,VWS V14.01,2013-11-07 23:25:00,
2013-11-07 18:30:00,48.0,45.5,29.75,WSW,237,1.0,4.0,91,0.00,,---,0.02,VWS V14.01,2013-11-07 23:30:00,
2013-11-07 18:35:00,47.9,45.4,29.75,NNE,19,0.0,3.0,91,0.00,,---,0.02,VWS V14.01,2013-11-07 23:35:00,
2013-11-07 18:40:00,47.8,45.3,29.75,NNE,30,0.0,1.0,91,0.00,,---,0.02,VWS V14.01,2013-11-07 23:40:00,
2013-11-07 18:45:00,47.6,45.1,29.75,SW,229,0.0,4.0,91,0.00,,---,0.02,VWS V14.01,2013-11-07 23:45:00,
2013-11-07 18:50:00,47.3,44.8,29.76,SW,229,0.0,1.0,91,0.00,,---,0.02,VWS V14.01,2013-11-07 23:50:00,
2013-11-07 18:55:00,47.2,44.7,29.76,SW,220,0.0,3.0,91,0.00,,---,0.02,VWS V14.01,2013-11-07 23:55:00,
2013-11-07 19:00:00,47.0,44.5,29.76,NE,35,0.0,5.0,91,0.00,,---,0.02,VWS V14.01,2013-11-08 00:00:00,
2013-11-07 19:05:00,46.9,44.4,29.76,NE,35,0.0,1.0,91,0.00,,---,0.02,VWS V14.01,2013-11-08 00:05:00,
2013-11-07 19:10:00,46.8,44.3,29.76,NW,312,0.0,4.0,91,0.00,,---,0.02,VWS V14.01,2013-11-08 00:10:00,
2013-11-07 19:15:00,46.8,44.3,29.77,North,360,1.0,4.0,91,0.00,,---,0.02,VWS V14.01,2013-11-08 00:15:00,
2013-11-07 19:20:00,46.7,43.9,29.76,West,279,0.0,4.0,90,0.00,,---,0.02,VWS V14.01,2013-11-08 00:20:00,
2013-11-07 19:25:00,46.6,43.5,29.77,NW,324,1.0,3.0,89,0.00,,---,0.02,VWS V14.01,2013-11-08 00:25:00,
2013-11-07 19:30:00,46.5,43.1,29.77,NNW,348,9.0,9.0,88,0.00,,---,0.02,VWS V14.01,2013-11-08 00:30:00,
2013-11-07 19:35:00,46.6,42.3,29.77,North,6,2.0,9.0,85,0.00,,---,0.02,VWS V14.01,2013-11-08 00:35:00,
2013-11-07 19:40:00,46.6,41.7,29.78,NE,40,0.0,6.0,83,0.00,,---,0.02,VWS V14.01,2013-11-08 00:40:00,
2013-11-07 19:45:00,46.7,42.1,29.77,South,182,0.0,5.0,84,0.00,,---,0.02,VWS V14.01,2013-11-08 00:45:00,
2013-11-07 19:50:00,46.7,41.8,29.78,NE,40,0.0,6.0,83,0.00,,---,0.02,VWS V14.01,2013-11-08 00:50:00,
2013-11-07 19:55:00,46.6,41.7,29.78,NE,40,0.0,2.0,83,0.00,,---,0.02,VWS V14.01,2013-11-08 00:55:00,
2013-11-07 20:00:00,46.5,41.9,29.78,NNE,15,0.0,3.0,84,0.00,,---,0.02,VWS V14.01,2013-11-08 01:00:00,
2013-11-07 20:05:00,46.4,41.8,29.78,WNW,287,3.0,8.0,84,0.00,,---,0.02,VWS V14.01,2013-11-08 01:05:00,
2013-11-07 20:10:00,46.5,41.9,29.78,North,5,0.0,11.0,84,0.00,,---,0.02,VWS V14.01,2013-11-08 01:10:00,
2013-11-07 20:15:00,46.6,41.7,29.79,NNE,30,2.0,3.0,83,0.00,,---,0.02,VWS V14.01,2013-11-08 01:15:00,
2013-11-07 20:20:00,46.7,41.8,29.79,NNE,23,1.0,4.0,83,0.00,,---,0.02,VWS V14.01,2013-11-08 01:20:00,
2013-11-07 20:25:00,46.7,41.8,29.79,NE,40,1.0,5.0,83,0.00,,---,0.02,VWS V14.01,2013-11-08 01:25:00,
2013-11-07 20:30:00,46.6,41.4,29.79,NW,314,0.0,8.0,82,0.00,,---,0.02,VWS V14.01,2013-11-08 01:30:00,
2013-11-07 20:35:00,46.3,41.1,29.79,North,2,1.0,6.0,82,0.00,,---,0.02,VWS V14.01,2013-11-08 01:35:00,
2013-11-07 20:40:00,46.0,40.2,29.79,North,349,3.0,6.0,80,0.00,,---,0.02,VWS V14.01,2013-11-08 01:40:00,
2013-11-07 20:45:00,45.9,40.1,29.79,SW,215,2.0,5.0,80,0.00,,---,0.02,VWS V14.01,2013-11-08 01:45:00,
2013-11-07 20:50:00,45.8,40.0,29.79,NW,325,5.0,5.0,80,0.00,,---,0.02,VWS V14.01,2013-11-08 01:50:00,
2013-11-07 20:55:00,45.8,40.0,29.79,SW,226,0.0,6.0,80,0.00,,---,0.02,VWS V14.01,2013-11-08 01:55:00,
2013-11-07 21:00:00,45.7,39.9,29.79,North,8,1.0,5.0,80,0.00,,---,0.02,VWS V14.01,2013-11-08 02:00:00,
2013-11-07 21:05:00,45.7,39.9,29.80,NW,304,0.0,3.0,80,0.00,,---,0.02,VWS V14.01,2013-11-08 02:05:00,
2013-11-07 21:10:00,45.7,39.9,29.80,NW,308,0.0,3.0,80,0.00,,---,0.02,VWS V14.01,2013-11-08 02:10:00,
2013-11-07 21:15:00,45.7,39.2,29.80,WNW,285,3.0,8.0,78,0.00,,---,0.02,VWS V14.01,2013-11-08 02:15:00,
2013-11-07 21:20:00,45.6,39.5,29.80,NW,324,0.0,4.0,79,0.00,,---,0.02,VWS V14.01,2013-11-08 02:20:00,
2013-11-07 21:30:00,45.2,37.8,29.81,NNE,14,0.0,5.0,75,0.00,,---,0.02,VWS V14.01,2013-11-08 02:30:00,
2013-11-07 21:35:00,45.0,37.2,29.81,SW,235,2.0,7.0,74,0.00,,---,0.02,VWS V14.01,2013-11-08 02:35:00,
2013-11-07 21:40:00,44.8,36.7,29.81,North,4,2.0,6.0,73,0.00,,---,0.02,VWS V14.01,2013-11-08 02:40:00,
2013-11-07 21:45:00,44.6,36.2,29.81,WSW,248,3.0,10.0,72,0.00,,---,0.02,VWS V14.01,2013-11-08 02:45:00,
2013-11-07 21:50:00,44.3,35.5,29.81,North,350,1.0,11.0,71,0.00,,---,0.02,VWS V14.01,2013-11-08 02:50:00,
2013-11-07 21:55:00,44.1,35.0,29.82,North,2,5.0,6.0,70,0.00,,---,0.02,VWS V14.01,2013-11-08 02:55:00,
2013-11-07 22:00:00,43.9,35.1,29.81,WNW,285,1.0,5.0,71,0.00,,---,0.02,VWS V14.01,2013-11-08 03:00:00,
2013-11-07 22:05:00,43.6,34.8,29.82,West,267,0.0,7.0,71,0.00,,---,0.02,VWS V14.01,2013-11-08 03:05:00,
2013-11-07 22:10:00,43.4,35.0,29.82,SW,233,0.0,4.0,72,0.00,,---,0.02,VWS V14.01,2013-11-08 03:10:00,
2013-11-07 22:15:00,43.1,35.0,29.82,West,268,0.0,3.0,73,0.00,,---,0.02,VWS V14.01,2013-11-08 03:15:00,
2013-11-07 22:20:00,42.7,34.7,29.82,North,8,2.0,5.0,73,0.00,,---,0.02,VWS V14.01,2013-11-08 03:20:00,
2013-11-07 22:30:00,42.8,33.7,29.82,NNE,22,1.0,10.0,70,0.00,,---,0.02,VWS V14.01,2013-11-08 03:30:00,
2013-11-07 22:35:00,42.7,33.2,29.82,North,8,2.0,5.0,69,0.00,,---,0.02,VWS V14.01,2013-11-08 03:35:00,
2013-11-07 22:40:00,42.5,33.4,29.82,North,352,1.0,4.0,70,0.00,,---,0.02,VWS V14.01,2013-11-08 03:40:00,
2013-11-07 22:45:00,42.2,33.1,29.82,NNE,30,0.0,3.0,70,0.00,,---,0.02,VWS V14.01,2013-11-08 03:45:00,
2013-11-07 22:50:00,42.0,33.3,29.82,NNE,30,0.0,1.0,71,0.00,,---,0.02,VWS V14.01,2013-11-08 03:50:00,
2013-11-07 22:55:00,41.5,33.2,29.82,West,279,0.0,3.0,72,0.00,,---,0.02,VWS V14.01,2013-11-08 03:55:00,
2013-11-07 23:00:00,41.1,33.1,29.82,West,279,0.0,1.0,73,0.00,,---,0.02,VWS V14.01,2013-11-08 04:00:00,
2013-11-07 23:05:00,40.7,33.1,29.82,West,279,0.0,0.0,74,0.00,,---,0.02,VWS V14.01,2013-11-08 04:05:00,
2013-11-07 23:10:00,40.2,32.9,29.82,West,279,0.0,1.0,75,0.00,,---,0.02,VWS V14.01,2013-11-08 04:10:00,
2013-11-07 23:15:00,39.8,32.5,29.82,West,279,0.0,1.0,75,0.00,,---,0.02,VWS V14.01,2013-11-08 04:15:00,
2013-11-07 23:20:00,39.6,32.3,29.82,West,279,0.0,1.0,75,0.00,,---,0.02,VWS V14.01,2013-11-08 04:20:00,
2013-11-07 23:25:00,39.4,32.8,29.82,West,279,0.0,0.0,77,0.00,,---,0.02,VWS V14.01,2013-11-08 04:25:00,
2013-11-07 23:35:00,38.7,32.4,29.82,West,279,0.0,0.0,78,0.00,,---,0.02,VWS V14.01,2013-11-08 04:35:00,
2013-11-07 23:40:00,38.2,32.6,29.83,West,279,0.0,0.0,80,0.00,,---,0.02,VWS V14.01,2013-11-08 04:40:00,
2013-11-07 23:45:00,37.9,32.3,29.83,West,279,0.0,1.0,80,0.00,,---,0.02,VWS V14.01,2013-11-08 04:45:00,
2013-11-07 23:50:00,37.7,32.1,29.83,West,279,0.0,0.0,80,0.00,,---,0.02,VWS V14.01,2013-11-08 04:50:00,
2013-11-07 23:55:00,37.7,32.4,29.83,West,279,0.0,0.0,81,0.00,,---,0.02,VWS V14.01,2013-11-08 04:55:00,